sensor_id;sensor_type;location;lat;lon;timestamp;pressure;altitude;pressure_sealevel;temperature;humidity
13027;BME280;6580;42.680;23.324;2023-12-20T00:00:08;95741.59;;;0.81;100.00
13027;BME280;6580;42.680;23.324;2023-12-20T00:02:36;95742.34;;;0.83;100.00
13027;BME280;6580;42.680;23.324;2023-12-20T00:05:03;95745.63;;;0.86;100.00
13027;BME280;6580;42.680;23.324;2023-12-20T00:07:31;95741.81;;;0.92;100.00
13027;BME280;6580;42.680;23.324;2023-12-20T00:10:00;95727.38;;;0.85;100.00
13027;BME280;6580;42.680;23.324;2023-12-20T00:12:29;95722.66;;;0.76;100.00
13027;BME280;6580;42.680;23.324;2023-12-20T00:14:56;95716.81;;;0.86;100.00
13027;BME280;6580;42.680;23.324;2023-12-20T00:17:23;95726.03;;;0.78;100.00
13027;BME280;6580;42.680;23.324;2023-12-20T00:19:50;95727.97;;;0.90;100.00
13027;BME280;6580;42.680;23.324;2023-12-20T00:22:17;95704.56;;;0.87;100.00
13027;BME280;6580;42.680;23.324;2023-12-20T00:24:44;95714.72;;;1.06;100.00
13027;BME280;6580;42.680;23.324;2023-12-20T00:27:12;95705.69;;;0.97;100.00
13027;BME280;6580;42.680;23.324;2023-12-20T00:29:39;95706.09;;;1.04;100.00
13027;BME280;6580;42.680;23.324;2023-12-20T00:32:13;95691.78;;;1.24;100.00
13027;BME280;6580;42.680;23.324;2023-12-20T00:34:40;95696.59;;;1.31;100.00
13027;BME280;6580;42.680;23.324;2023-12-20T00:37:07;95689.16;;;1.10;100.00
13027;BME280;6580;42.680;23.324;2023-12-20T00:39:35;95691.50;;;1.28;100.00
13027;BME280;6580;42.680;23.324;2023-12-20T00:42:08;95681.75;;;1.16;100.00
13027;BME280;6580;42.680;23.324;2023-12-20T00:44:41;95683.16;;;1.08;100.00
13027;BME280;6580;42.680;23.324;2023-12-20T00:47:09;95676.09;;;0.95;100.00
13027;BME280;6580;42.680;23.324;2023-12-20T00:49:37;95686.16;;;0.73;100.00
13027;BME280;6580;42.680;23.324;2023-12-20T00:52:05;95687.16;;;0.70;100.00
13027;BME280;6580;42.680;23.324;2023-12-20T00:54:32;95688.38;;;0.65;100.00
13027;BME280;6580;42.680;23.324;2023-12-20T00:56:59;95687.94;;;0.72;100.00
13027;BME280;6580;42.680;23.324;2023-12-20T00:59:26;95684.25;;;0.90;100.00
13027;BME280;6580;42.680;23.324;2023-12-20T01:01:55;95675.91;;;0.84;100.00
13027;BME280;6580;42.680;23.324;2023-12-20T01:04:22;95676.84;;;0.67;100.00
13027;BME280;6580;42.680;23.324;2023-12-20T01:06:52;95661.53;;;0.75;100.00
13027;BME280;6580;42.680;23.324;2023-12-20T01:09:20;95671.63;;;0.67;100.00
13027;BME280;6580;42.680;23.324;2023-12-20T01:11:49;95662.63;;;0.87;100.00
13027;BME280;6580;42.680;23.324;2023-12-20T01:14:18;95662.03;;;0.82;100.00
13027;BME280;6580;42.680;23.324;2023-12-20T01:16:47;95612.22;;;0.68;100.00
13027;BME280;6580;42.680;23.324;2023-12-20T01:19:15;95655.44;;;0.75;100.00
13027;BME280;6580;42.680;23.324;2023-12-20T01:21:43;95648.91;;;0.82;100.00
13027;BME280;6580;42.680;23.324;2023-12-20T01:24:10;95643.84;;;0.79;100.00
13027;BME280;6580;42.680;23.324;2023-12-20T01:26:37;95647.97;;;0.69;100.00
13027;BME280;6580;42.680;23.324;2023-12-20T01:29:05;95636.91;;;0.78;100.00
13027;BME280;6580;42.680;23.324;2023-12-20T01:31:32;95637.97;;;0.75;100.00
13027;BME280;6580;42.680;23.324;2023-12-20T01:33:59;95632.63;;;0.77;100.00
13027;BME280;6580;42.680;23.324;2023-12-20T01:36:30;95626.25;;;0.67;100.00
13027;BME280;6580;42.680;23.324;2023-12-20T01:38:57;95617.84;;;0.46;100.00
13027;BME280;6580;42.680;23.324;2023-12-20T01:41:24;95634.59;;;0.44;100.00
13027;BME280;6580;42.680;23.324;2023-12-20T01:43:52;95628.72;;;0.54;100.00
13027;BME280;6580;42.680;23.324;2023-12-20T01:46:22;95623.22;;;0.59;100.00
13027;BME280;6580;42.680;23.324;2023-12-20T01:48:51;95614.94;;;0.80;100.00
13027;BME280;6580;42.680;23.324;2023-12-20T01:51:24;95611.66;;;0.47;100.00
13027;BME280;6580;42.680;23.324;2023-12-20T01:53:57;95605.41;;;0.50;100.00
13027;BME280;6580;42.680;23.324;2023-12-20T01:56:24;95598.13;;;0.55;100.00
13027;BME280;6580;42.680;23.324;2023-12-20T01:58:53;95588.38;;;0.57;100.00
13027;BME280;6580;42.680;23.324;2023-12-20T02:01:20;95581.59;;;0.39;100.00
13027;BME280;6580;42.680;23.324;2023-12-20T02:03:49;95602.97;;;0.47;100.00
13027;BME280;6580;42.680;23.324;2023-12-20T02:06:16;95596.81;;;0.48;100.00
13027;BME280;6580;42.680;23.324;2023-12-20T02:08:44;95590.69;;;0.47;100.00
13027;BME280;6580;42.680;23.324;2023-12-20T02:11:13;95592.28;;;0.36;100.00
13027;BME280;6580;42.680;23.324;2023-12-20T02:13:40;95580.28;;;0.61;100.00
13027;BME280;6580;42.680;23.324;2023-12-20T02:16:08;95587.63;;;0.55;100.00
13027;BME280;6580;42.680;23.324;2023-12-20T02:18:36;95581.84;;;0.50;100.00
13027;BME280;6580;42.680;23.324;2023-12-20T02:21:06;95573.13;;;0.49;100.00
13027;BME280;6580;42.680;23.324;2023-12-20T02:23:37;95574.50;;;0.41;100.00
13027;BME280;6580;42.680;23.324;2023-12-20T02:26:05;95580.53;;;0.57;100.00
13027;BME280;6580;42.680;23.324;2023-12-20T02:28:34;95574.91;;;0.49;100.00
13027;BME280;6580;42.680;23.324;2023-12-20T02:31:02;95568.06;;;0.46;100.00
13027;BME280;6580;42.680;23.324;2023-12-20T02:33:29;95566.56;;;0.42;100.00
13027;BME280;6580;42.680;23.324;2023-12-20T02:35:57;95567.63;;;0.54;100.00
13027;BME280;6580;42.680;23.324;2023-12-20T02:38:24;95540.78;;;0.21;100.00
13027;BME280;6580;42.680;23.324;2023-12-20T02:40:53;95558.91;;;0.53;100.00
13027;BME280;6580;42.680;23.324;2023-12-20T02:43:23;95535.97;;;0.43;100.00
13027;BME280;6580;42.680;23.324;2023-12-20T02:45:51;95538.16;;;0.64;100.00
13027;BME280;6580;42.680;23.324;2023-12-20T02:48:18;95535.34;;;0.53;100.00
13027;BME280;6580;42.680;23.324;2023-12-20T02:50:45;95557.59;;;0.46;100.00
13027;BME280;6580;42.680;23.324;2023-12-20T02:53:13;95552.84;;;0.53;100.00
13027;BME280;6580;42.680;23.324;2023-12-20T02:55:40;95545.88;;;0.38;100.00
13027;BME280;6580;42.680;23.324;2023-12-20T02:58:09;95535.16;;;0.13;100.00
13027;BME280;6580;42.680;23.324;2023-12-20T03:00:36;95544.44;;;0.18;100.00
13027;BME280;6580;42.680;23.324;2023-12-20T03:03:04;95546.72;;;0.09;100.00
13027;BME280;6580;42.680;23.324;2023-12-20T03:05:32;95550.94;;;0.11;100.00
13027;BME280;6580;42.680;23.324;2023-12-20T03:08:00;95529.47;;;-0.09;100.00
13027;BME280;6580;42.680;23.324;2023-12-20T03:10:28;95552.13;;;0.06;100.00
13027;BME280;6580;42.680;23.324;2023-12-20T03:12:58;95544.75;;;-0.17;100.00
13027;BME280;6580;42.680;23.324;2023-12-20T03:15:26;95544.84;;;-0.34;100.00
13027;BME280;6580;42.680;23.324;2023-12-20T03:17:53;95547.41;;;-0.32;100.00
13027;BME280;6580;42.680;23.324;2023-12-20T03:20:20;95545.88;;;-0.21;100.00
13027;BME280;6580;42.680;23.324;2023-12-20T03:22:49;95547.03;;;-0.11;100.00
13027;BME280;6580;42.680;23.324;2023-12-20T03:25:19;95540.53;;;-0.19;100.00
13027;BME280;6580;42.680;23.324;2023-12-20T03:27:46;95527.00;;;-0.12;100.00
13027;BME280;6580;42.680;23.324;2023-12-20T03:30:13;95533.63;;;-0.20;100.00
13027;BME280;6580;42.680;23.324;2023-12-20T03:32:43;95537.09;;;-0.20;100.00
13027;BME280;6580;42.680;23.324;2023-12-20T03:35:12;95532.09;;;-0.24;100.00
13027;BME280;6580;42.680;23.324;2023-12-20T03:37:41;95520.81;;;-0.25;100.00
13027;BME280;6580;42.680;23.324;2023-12-20T03:40:08;95527.94;;;-0.13;100.00
13027;BME280;6580;42.680;23.324;2023-12-20T03:42:35;95539.34;;;-0.14;100.00
13027;BME280;6580;42.680;23.324;2023-12-20T03:45:03;95533.13;;;-0.27;100.00
13027;BME280;6580;42.680;23.324;2023-12-20T03:47:32;95525.63;;;-0.33;100.00
13027;BME280;6580;42.680;23.324;2023-12-20T03:50:01;95530.50;;;-0.27;100.00
13027;BME280;6580;42.680;23.324;2023-12-20T03:52:28;95520.31;;;-0.31;100.00
13027;BME280;6580;42.680;23.324;2023-12-20T03:54:55;95515.25;;;-0.34;100.00
13027;BME280;6580;42.680;23.324;2023-12-20T03:57:23;95522.31;;;-0.21;100.00
13027;BME280;6580;42.680;23.324;2023-12-20T03:59:50;95516.94;;;-0.49;100.00
13027;BME280;6580;42.680;23.324;2023-12-20T04:02:19;95525.06;;;-0.38;100.00
13027;BME280;6580;42.680;23.324;2023-12-20T04:04:48;95516.66;;;-0.29;100.00
13027;BME280;6580;42.680;23.324;2023-12-20T04:07:19;95512.38;;;-0.30;100.00
13027;BME280;6580;42.680;23.324;2023-12-20T04:09:47;95502.50;;;-0.25;100.00
13027;BME280;6580;42.680;23.324;2023-12-20T04:12:14;95503.41;;;-0.26;100.00
13027;BME280;6580;42.680;23.324;2023-12-20T04:14:42;95499.56;;;-0.34;100.00
13027;BME280;6580;42.680;23.324;2023-12-20T04:17:09;95487.78;;;-0.57;100.00
13027;BME280;6580;42.680;23.324;2023-12-20T04:19:39;95496.78;;;-0.47;100.00
13027;BME280;6580;42.680;23.324;2023-12-20T04:22:11;95492.53;;;-0.34;100.00
13027;BME280;6580;42.680;23.324;2023-12-20T04:24:41;95498.69;;;-0.35;100.00
13027;BME280;6580;42.680;23.324;2023-12-20T04:27:08;95490.44;;;-0.43;100.00
13027;BME280;6580;42.680;23.324;2023-12-20T04:29:39;95493.66;;;-0.38;100.00
13027;BME280;6580;42.680;23.324;2023-12-20T04:32:06;95485.63;;;-0.35;100.00
13027;BME280;6580;42.680;23.324;2023-12-20T04:34:35;95474.59;;;-0.40;100.00
13027;BME280;6580;42.680;23.324;2023-12-20T04:37:03;95488.66;;;-0.42;100.00
13027;BME280;6580;42.680;23.324;2023-12-20T04:39:31;95480.75;;;-0.41;100.00
13027;BME280;6580;42.680;23.324;2023-12-20T04:42:01;95475.75;;;-0.45;100.00
13027;BME280;6580;42.680;23.324;2023-12-20T04:44:29;95474.28;;;-0.65;100.00
13027;BME280;6580;42.680;23.324;2023-12-20T04:47:00;95478.84;;;-0.68;100.00
13027;BME280;6580;42.680;23.324;2023-12-20T04:49:29;95480.75;;;-0.72;100.00
13027;BME280;6580;42.680;23.324;2023-12-20T04:51:56;95472.09;;;-0.72;100.00
13027;BME280;6580;42.680;23.324;2023-12-20T04:54:23;95480.28;;;-0.63;100.00
13027;BME280;6580;42.680;23.324;2023-12-20T04:56:50;95475.53;;;-0.72;100.00
13027;BME280;6580;42.680;23.324;2023-12-20T04:59:21;95474.94;;;-0.61;100.00
13027;BME280;6580;42.680;23.324;2023-12-20T05:01:53;95481.13;;;-0.78;100.00
13027;BME280;6580;42.680;23.324;2023-12-20T05:04:20;95485.59;;;-0.80;100.00
13027;BME280;6580;42.680;23.324;2023-12-20T05:06:48;95485.31;;;-0.91;100.00
13027;BME280;6580;42.680;23.324;2023-12-20T05:09:16;95477.25;;;-1.02;100.00
13027;BME280;6580;42.680;23.324;2023-12-20T05:11:44;95475.28;;;-0.98;100.00
13027;BME280;6580;42.680;23.324;2023-12-20T05:14:11;95474.72;;;-1.03;100.00
13027;BME280;6580;42.680;23.324;2023-12-20T05:16:39;95475.13;;;-1.26;100.00
13027;BME280;6580;42.680;23.324;2023-12-20T05:19:06;95460.00;;;-1.36;100.00
13027;BME280;6580;42.680;23.324;2023-12-20T05:21:33;95465.56;;;-1.42;100.00
13027;BME280;6580;42.680;23.324;2023-12-20T05:24:01;95477.97;;;-1.30;100.00
13027;BME280;6580;42.680;23.324;2023-12-20T05:26:28;95478.84;;;-1.14;100.00
13027;BME280;6580;42.680;23.324;2023-12-20T05:28:56;95474.09;;;-1.23;100.00
13027;BME280;6580;42.680;23.324;2023-12-20T05:31:24;95459.25;;;-1.38;100.00
13027;BME280;6580;42.680;23.324;2023-12-20T05:33:52;95459.44;;;-1.26;100.00
13027;BME280;6580;42.680;23.324;2023-12-20T05:36:19;95446.28;;;-1.24;100.00
13027;BME280;6580;42.680;23.324;2023-12-20T05:38:46;95456.84;;;-1.26;100.00
13027;BME280;6580;42.680;23.324;2023-12-20T05:41:13;95466.19;;;-1.22;100.00
13027;BME280;6580;42.680;23.324;2023-12-20T05:43:40;95454.25;;;-1.10;100.00
13027;BME280;6580;42.680;23.324;2023-12-20T05:46:07;95459.63;;;-1.13;100.00
13027;BME280;6580;42.680;23.324;2023-12-20T05:48:36;95458.53;;;-1.09;100.00
13027;BME280;6580;42.680;23.324;2023-12-20T05:51:06;95451.88;;;-1.30;100.00
13027;BME280;6580;42.680;23.324;2023-12-20T05:53:33;95456.25;;;-1.15;100.00
13027;BME280;6580;42.680;23.324;2023-12-20T05:56:00;95441.91;;;-1.24;100.00
13027;BME280;6580;42.680;23.324;2023-12-20T05:58:27;95446.56;;;-1.13;100.00
13027;BME280;6580;42.680;23.324;2023-12-20T06:00:55;95449.50;;;-1.19;100.00
13027;BME280;6580;42.680;23.324;2023-12-20T06:03:21;95440.75;;;-1.18;100.00
13027;BME280;6580;42.680;23.324;2023-12-20T06:05:49;95442.91;;;-1.26;100.00
13027;BME280;6580;42.680;23.324;2023-12-20T06:08:17;95438.03;;;-1.17;100.00
13027;BME280;6580;42.680;23.324;2023-12-20T06:10:44;95451.44;;;-1.23;100.00
13027;BME280;6580;42.680;23.324;2023-12-20T06:13:11;95445.72;;;-1.29;100.00
13027;BME280;6580;42.680;23.324;2023-12-20T06:15:39;95435.06;;;-1.26;100.00
13027;BME280;6580;42.680;23.324;2023-12-20T06:18:07;95446.16;;;-1.06;100.00
13027;BME280;6580;42.680;23.324;2023-12-20T06:20:36;95440.56;;;-1.15;100.00
13027;BME280;6580;42.680;23.324;2023-12-20T06:23:04;95440.81;;;-1.04;100.00
13027;BME280;6580;42.680;23.324;2023-12-20T06:25:32;95453.56;;;-0.99;100.00
13027;BME280;6580;42.680;23.324;2023-12-20T06:27:59;95440.72;;;-0.88;100.00
13027;BME280;6580;42.680;23.324;2023-12-20T06:30:27;95454.38;;;-0.83;100.00
13027;BME280;6580;42.680;23.324;2023-12-20T06:32:56;95440.88;;;-0.60;100.00
13027;BME280;6580;42.680;23.324;2023-12-20T06:35:23;95452.16;;;-0.59;100.00
13027;BME280;6580;42.680;23.324;2023-12-20T06:37:50;95436.03;;;-0.52;100.00
13027;BME280;6580;42.680;23.324;2023-12-20T06:40:18;95443.22;;;-0.71;100.00
13027;BME280;6580;42.680;23.324;2023-12-20T06:42:46;95429.06;;;-0.51;100.00
13027;BME280;6580;42.680;23.324;2023-12-20T06:45:13;95421.34;;;-0.39;100.00
13027;BME280;6580;42.680;23.324;2023-12-20T06:47:40;95421.84;;;-0.48;100.00
13027;BME280;6580;42.680;23.324;2023-12-20T06:50:07;95416.19;;;-0.40;100.00
13027;BME280;6580;42.680;23.324;2023-12-20T06:52:38;95410.91;;;-0.25;100.00
13027;BME280;6580;42.680;23.324;2023-12-20T06:55:05;95413.25;;;-0.20;100.00
13027;BME280;6580;42.680;23.324;2023-12-20T06:57:32;95370.97;;;-0.42;100.00
13027;BME280;6580;42.680;23.324;2023-12-20T07:00:02;95394.09;;;-0.21;100.00
13027;BME280;6580;42.680;23.324;2023-12-20T07:02:29;95408.16;;;-0.08;100.00
13027;BME280;6580;42.680;23.324;2023-12-20T07:04:57;95405.34;;;-0.05;100.00
13027;BME280;6580;42.680;23.324;2023-12-20T07:07:24;95403.69;;;0.08;100.00
13027;BME280;6580;42.680;23.324;2023-12-20T07:09:51;95392.75;;;0.15;100.00
13027;BME280;6580;42.680;23.324;2023-12-20T07:12:18;95394.72;;;0.26;100.00
13027;BME280;6580;42.680;23.324;2023-12-20T07:14:46;95400.34;;;0.48;100.00
13027;BME280;6580;42.680;23.324;2023-12-20T07:17:14;95395.66;;;0.39;100.00
13027;BME280;6580;42.680;23.324;2023-12-20T07:19:42;95390.22;;;0.70;100.00
13027;BME280;6580;42.680;23.324;2023-12-20T07:22:08;95389.28;;;0.29;100.00
13027;BME280;6580;42.680;23.324;2023-12-20T07:24:35;95386.84;;;0.26;100.00
13027;BME280;6580;42.680;23.324;2023-12-20T07:27:03;95386.78;;;0.41;100.00
13027;BME280;6580;42.680;23.324;2023-12-20T07:29:30;95374.75;;;0.79;100.00
13027;BME280;6580;42.680;23.324;2023-12-20T07:31:56;95373.53;;;0.85;100.00
13027;BME280;6580;42.680;23.324;2023-12-20T07:34:25;95343.13;;;0.68;100.00
13027;BME280;6580;42.680;23.324;2023-12-20T07:36:52;95363.44;;;0.65;100.00
13027;BME280;6580;42.680;23.324;2023-12-20T07:39:22;95363.91;;;0.71;100.00
13027;BME280;6580;42.680;23.324;2023-12-20T07:41:49;95368.88;;;0.62;100.00
13027;BME280;6580;42.680;23.324;2023-12-20T07:44:16;95376.69;;;0.90;100.00
13027;BME280;6580;42.680;23.324;2023-12-20T07:46:43;95367.00;;;1.04;100.00
13027;BME280;6580;42.680;23.324;2023-12-20T07:49:10;95375.75;;;0.91;100.00
13027;BME280;6580;42.680;23.324;2023-12-20T07:51:39;95363.78;;;0.87;100.00
13027;BME280;6580;42.680;23.324;2023-12-20T07:54:06;95360.41;;;0.85;100.00
13027;BME280;6580;42.680;23.324;2023-12-20T07:56:33;95331.59;;;0.44;100.00
13027;BME280;6580;42.680;23.324;2023-12-20T07:59:00;95366.03;;;0.79;100.00
13027;BME280;6580;42.680;23.324;2023-12-20T08:01:27;95343.34;;;0.92;100.00
13027;BME280;6580;42.680;23.324;2023-12-20T08:06:42;95349.44;;;1.18;100.00
13027;BME280;6580;42.680;23.324;2023-12-20T08:09:09;95356.47;;;1.18;100.00
13027;BME280;6580;42.680;23.324;2023-12-20T08:11:37;95349.25;;;1.21;100.00
13027;BME280;6580;42.680;23.324;2023-12-20T08:14:03;95353.69;;;1.33;100.00
13027;BME280;6580;42.680;23.324;2023-12-20T08:16:31;95305.28;;;1.25;100.00
13027;BME280;6580;42.680;23.324;2023-12-20T08:18:57;95346.00;;;1.69;100.00
13027;BME280;6580;42.680;23.324;2023-12-20T08:21:25;95341.91;;;1.65;100.00
13027;BME280;6580;42.680;23.324;2023-12-20T08:23:54;95333.00;;;1.80;100.00
13027;BME280;6580;42.680;23.324;2023-12-20T08:26:21;95339.09;;;1.93;100.00
13027;BME280;6580;42.680;23.324;2023-12-20T08:28:49;95334.91;;;2.28;100.00
13027;BME280;6580;42.680;23.324;2023-12-20T08:31:17;95316.75;;;2.61;100.00
13027;BME280;6580;42.680;23.324;2023-12-20T08:33:46;95325.19;;;2.66;100.00
13027;BME280;6580;42.680;23.324;2023-12-20T08:36:13;95311.16;;;2.78;100.00
13027;BME280;6580;42.680;23.324;2023-12-20T08:38:40;95308.47;;;2.54;100.00
13027;BME280;6580;42.680;23.324;2023-12-20T08:41:09;95305.38;;;2.12;100.00
13027;BME280;6580;42.680;23.324;2023-12-20T08:43:36;95266.22;;;1.84;100.00
13027;BME280;6580;42.680;23.324;2023-12-20T08:46:05;95316.97;;;1.97;100.00
13027;BME280;6580;42.680;23.324;2023-12-20T08:48:32;95306.53;;;1.83;100.00
13027;BME280;6580;42.680;23.324;2023-12-20T08:50:59;95300.25;;;1.98;100.00
13027;BME280;6580;42.680;23.324;2023-12-20T08:53:26;95301.41;;;1.82;100.00
13027;BME280;6580;42.680;23.324;2023-12-20T08:55:53;95303.81;;;1.97;100.00
13027;BME280;6580;42.680;23.324;2023-12-20T08:58:22;95297.19;;;2.04;100.00
13027;BME280;6580;42.680;23.324;2023-12-20T09:00:49;95287.81;;;2.25;100.00
13027;BME280;6580;42.680;23.324;2023-12-20T09:03:16;95273.47;;;2.54;100.00
13027;BME280;6580;42.680;23.324;2023-12-20T09:05:43;95262.50;;;2.60;100.00
13027;BME280;6580;42.680;23.324;2023-12-20T09:08:10;95259.63;;;2.52;100.00
13027;BME280;6580;42.680;23.324;2023-12-20T09:10:38;95251.16;;;2.59;100.00
13027;BME280;6580;42.680;23.324;2023-12-20T09:13:06;95243.38;;;2.58;100.00
13027;BME280;6580;42.680;23.324;2023-12-20T09:15:34;95220.63;;;2.69;100.00
13027;BME280;6580;42.680;23.324;2023-12-20T09:18:02;95230.50;;;2.55;100.00
13027;BME280;6580;42.680;23.324;2023-12-20T09:20:29;95217.09;;;2.58;100.00
13027;BME280;6580;42.680;23.324;2023-12-20T09:22:56;95216.59;;;2.53;100.00
13027;BME280;6580;42.680;23.324;2023-12-20T09:25:23;95204.13;;;2.67;100.00
13027;BME280;6580;42.680;23.324;2023-12-20T09:27:51;95209.72;;;2.63;100.00
13027;BME280;6580;42.680;23.324;2023-12-20T09:30:19;95197.13;;;2.55;100.00
13027;BME280;6580;42.680;23.324;2023-12-20T09:32:47;95198.81;;;2.56;100.00
13027;BME280;6580;42.680;23.324;2023-12-20T09:35:13;95191.50;;;2.49;100.00
13027;BME280;6580;42.680;23.324;2023-12-20T09:37:40;95189.38;;;2.54;100.00
13027;BME280;6580;42.680;23.324;2023-12-20T09:40:13;95187.63;;;2.65;100.00
13027;BME280;6580;42.680;23.324;2023-12-20T09:42:47;95173.81;;;2.74;100.00
13027;BME280;6580;42.680;23.324;2023-12-20T09:45:20;95168.53;;;2.97;100.00
13027;BME280;6580;42.680;23.324;2023-12-20T09:47:50;95164.56;;;2.92;100.00
13027;BME280;6580;42.680;23.324;2023-12-20T09:50:18;95162.09;;;3.12;100.00
13027;BME280;6580;42.680;23.324;2023-12-20T09:52:50;95161.59;;;2.97;100.00
13027;BME280;6580;42.680;23.324;2023-12-20T09:55:18;95155.44;;;3.08;100.00
13027;BME280;6580;42.680;23.324;2023-12-20T09:57:46;95142.38;;;3.07;100.00
13027;BME280;6580;42.680;23.324;2023-12-20T10:00:17;95154.59;;;3.19;100.00
13027;BME280;6580;42.680;23.324;2023-12-20T10:02:50;95141.25;;;3.44;100.00
13027;BME280;6580;42.680;23.324;2023-12-20T10:05:21;95152.28;;;4.25;100.00
13027;BME280;6580;42.680;23.324;2023-12-20T10:07:52;95132.16;;;4.67;100.00
13027;BME280;6580;42.680;23.324;2023-12-20T10:10:20;95127.44;;;5.01;100.00
13027;BME280;6580;42.680;23.324;2023-12-20T10:13:02;95118.28;;;5.46;100.00
13027;BME280;6580;42.680;23.324;2023-12-20T10:15:29;95112.25;;;5.14;100.00
13027;BME280;6580;42.680;23.324;2023-12-20T10:17:58;95113.53;;;4.99;100.00
13027;BME280;6580;42.680;23.324;2023-12-20T10:20:26;95102.75;;;4.92;100.00
13027;BME280;6580;42.680;23.324;2023-12-20T10:22:54;95100.47;;;5.89;100.00
13027;BME280;6580;42.680;23.324;2023-12-20T10:25:22;95082.81;;;6.48;100.00
13027;BME280;6580;42.680;23.324;2023-12-20T10:27:50;95079.78;;;6.81;100.00
13027;BME280;6580;42.680;23.324;2023-12-20T10:30:17;95069.72;;;6.37;100.00
13027;BME280;6580;42.680;23.324;2023-12-20T10:32:44;95039.66;;;6.57;98.77
13027;BME280;6580;42.680;23.324;2023-12-20T10:35:11;95059.66;;;7.44;95.01
13027;BME280;6580;42.680;23.324;2023-12-20T10:37:42;95057.09;;;7.52;91.56
13027;BME280;6580;42.680;23.324;2023-12-20T10:40:09;95057.13;;;7.89;88.08
13027;BME280;6580;42.680;23.324;2023-12-20T10:42:40;95054.28;;;7.73;88.38
13027;BME280;6580;42.680;23.324;2023-12-20T10:45:08;95044.34;;;8.55;86.98
13027;BME280;6580;42.680;23.324;2023-12-20T10:47:36;95031.72;;;8.40;83.88
13027;BME280;6580;42.680;23.324;2023-12-20T10:50:05;95035.78;;;8.61;83.41
13027;BME280;6580;42.680;23.324;2023-12-20T10:52:34;95033.56;;;8.39;79.51
13027;BME280;6580;42.680;23.324;2023-12-20T10:55:05;95024.81;;;8.29;82.84
13027;BME280;6580;42.680;23.324;2023-12-20T10:57:33;95032.28;;;8.96;81.37
13027;BME280;6580;42.680;23.324;2023-12-20T11:00:03;95004.63;;;8.63;82.87
13027;BME280;6580;42.680;23.324;2023-12-20T11:02:32;95008.50;;;9.29;80.88
13027;BME280;6580;42.680;23.324;2023-12-20T11:05:10;94999.09;;;9.68;77.22
13027;BME280;6580;42.680;23.324;2023-12-20T11:07:47;94994.47;;;9.70;72.28
13027;BME280;6580;42.680;23.324;2023-12-20T11:10:21;95008.34;;;7.45;85.18
13027;BME280;6580;42.680;23.324;2023-12-20T11:12:54;95011.25;;;6.59;96.29
13027;BME280;6580;42.680;23.324;2023-12-20T11:15:23;95006.63;;;5.65;100.00
13027;BME280;6580;42.680;23.324;2023-12-20T11:17:55;95002.03;;;5.37;100.00
13027;BME280;6580;42.680;23.324;2023-12-20T11:20:23;94999.50;;;5.26;100.00
13027;BME280;6580;42.680;23.324;2023-12-20T11:22:54;94996.09;;;4.85;100.00
13027;BME280;6580;42.680;23.324;2023-12-20T11:25:23;94980.59;;;4.71;100.00
13027;BME280;6580;42.680;23.324;2023-12-20T11:28:10;94977.72;;;4.83;100.00
13027;BME280;6580;42.680;23.324;2023-12-20T11:30:41;94973.44;;;4.62;100.00
13027;BME280;6580;42.680;23.324;2023-12-20T11:33:08;94963.09;;;4.70;100.00
13027;BME280;6580;42.680;23.324;2023-12-20T11:35:35;94966.25;;;4.43;100.00
13027;BME280;6580;42.680;23.324;2023-12-20T11:38:03;94963.16;;;4.38;100.00
13027;BME280;6580;42.680;23.324;2023-12-20T11:40:35;94941.28;;;4.06;100.00
13027;BME280;6580;42.680;23.324;2023-12-20T11:43:03;94956.84;;;3.98;100.00
13027;BME280;6580;42.680;23.324;2023-12-20T11:45:32;94947.47;;;4.57;100.00
13027;BME280;6580;42.680;23.324;2023-12-20T11:48:02;94941.53;;;5.15;100.00
13027;BME280;6580;42.680;23.324;2023-12-20T11:50:29;94924.56;;;7.62;100.00
13027;BME280;6580;42.680;23.324;2023-12-20T11:52:57;94905.00;;;8.77;91.64
13027;BME280;6580;42.680;23.324;2023-12-20T11:55:24;94897.88;;;10.03;80.76
13027;BME280;6580;42.680;23.324;2023-12-20T11:57:53;94897.44;;;10.79;74.65
13027;BME280;6580;42.680;23.324;2023-12-20T12:00:20;94881.41;;;11.18;68.24
13027;BME280;6580;42.680;23.324;2023-12-20T12:02:58;94875.94;;;11.04;68.44
13027;BME280;6580;42.680;23.324;2023-12-20T12:05:25;94867.81;;;10.90;68.05
13027;BME280;6580;42.680;23.324;2023-12-20T12:07:53;94864.72;;;11.32;65.32
13027;BME280;6580;42.680;23.324;2023-12-20T12:10:20;94854.34;;;11.92;63.85
13027;BME280;6580;42.680;23.324;2023-12-20T12:12:48;94852.03;;;11.89;63.45
13027;BME280;6580;42.680;23.324;2023-12-20T12:15:21;94849.44;;;12.03;61.09
13027;BME280;6580;42.680;23.324;2023-12-20T12:17:53;94849.72;;;11.39;63.72
13027;BME280;6580;42.680;23.324;2023-12-20T12:20:21;94841.72;;;11.31;64.43
13027;BME280;6580;42.680;23.324;2023-12-20T12:22:57;94840.53;;;10.64;66.56
13027;BME280;6580;42.680;23.324;2023-12-20T12:25:24;94835.66;;;10.99;65.92
13027;BME280;6580;42.680;23.324;2023-12-20T12:27:51;94832.91;;;10.37;68.43
13027;BME280;6580;42.680;23.324;2023-12-20T12:30:22;94835.56;;;10.53;69.29
13027;BME280;6580;42.680;23.324;2023-12-20T12:32:50;94836.63;;;8.96;76.85
13027;BME280;6580;42.680;23.324;2023-12-20T12:35:19;94836.69;;;9.12;79.51
13027;BME280;6580;42.680;23.324;2023-12-20T12:37:47;94843.69;;;9.21;78.83
13027;BME280;6580;42.680;23.324;2023-12-20T12:40:16;94828.53;;;9.06;79.07
13027;BME280;6580;42.680;23.324;2023-12-20T12:42:44;94843.44;;;8.73;82.88
13027;BME280;6580;42.680;23.324;2023-12-20T12:45:12;94839.19;;;9.13;78.52
13027;BME280;6580;42.680;23.324;2023-12-20T12:47:40;94841.38;;;8.42;83.22
13027;BME280;6580;42.680;23.324;2023-12-20T12:50:08;94828.97;;;7.73;87.76
13027;BME280;6580;42.680;23.324;2023-12-20T12:52:36;94833.09;;;7.58;92.72
13027;BME280;6580;42.680;23.324;2023-12-20T12:55:03;94842.38;;;7.71;91.62
13027;BME280;6580;42.680;23.324;2023-12-20T12:57:31;94848.41;;;7.19;94.83
13027;BME280;6580;42.680;23.324;2023-12-20T12:59:59;94841.78;;;7.06;97.00
13027;BME280;6580;42.680;23.324;2023-12-20T13:02:28;94839.13;;;7.06;99.37
13027;BME280;6580;42.680;23.324;2023-12-20T13:04:57;94828.81;;;7.03;98.01